Time;durP1;ratioP1;P1;durP2;ratioP2;P2;SDS_P1;SDS_P2;PMS_P1;PMS_P2;Temp;Humidity;BMP_temperature;BMP_pressure;BME280_temperature;BME280_humidity;BME280_pressure;Samples;Min_cycle;Max_cycle;Signal;HPM_P1;HPM_P2
2022/12/01 04:46:00;;;;;;;9.07;4.90;;;;;;;12.66;nan;100764.47;5750128;24;20445;-95
2022/12/01 08:16:04;;;;;;;7.30;2.70;;;;;;;10.86;100.00;100855.63;4950191;29;20442;-91
2022/12/01 08:22:18;;;;;;;5.30;3.70;;;;;;;10.97;100.00;100874.25;4956349;29;20596;-91
2022/12/01 08:24:50;;;;;;;10.43;9.33;;;;;;;11.03;100.00;100889.91;4924438;29;20463;-92
2022/12/01 08:31:09;;;;;;;18.53;10.27;;;;;;;11.11;100.00;100878.00;4956125;29;20940;-92
2022/12/01 08:37:17;;;;;;;8.47;4.03;;;;;;;11.13;100.00;100897.81;5000999;28;20478;-90
2022/12/01 08:39:56;;;;;;;7.87;3.70;;;;;;;11.21;100.00;100900.41;4995714;28;20447;-91
2022/12/01 08:42:53;;;;;;;11.00;5.63;;;;;;;11.28;100.00;100890.41;4994688;28;21032;-91
2022/12/01 08:46:09;;;;;;;10.87;5.03;;;;;;;11.36;100.00;100897.59;4977698;28;20453;-91
2022/12/01 08:48:37;;;;;;;62.97;35.00;;;;;;;11.41;100.00;100897.88;5025703;28;20487;-92
2022/12/01 08:51:56;;;;;;;33.37;18.80;;;;;;;11.45;100.00;100899.19;5041828;28;20457;-92
2022/12/01 08:55:13;;;;;;;17.40;8.47;;;;;;;11.49;100.00;100900.50;5057462;28;20482;-92
2022/12/01 09:04:40;;;;;;;18.23;10.73;;;;;;;11.72;100.00;100906.59;5061003;28;20454;-92
2022/12/01 09:07:21;;;;;;;22.03;13.50;;;;;;;11.82;100.00;100899.97;5078129;28;20436;-92
2022/12/01 09:13:34;;;;;;;34.03;14.77;;;;;;;11.99;100.00;100901.34;5078697;28;20433;-92
2022/12/01 09:19:43;;;;;;;20.00;12.10;;;;;;;12.32;100.00;100915.28;5070204;28;20487;-91
2022/12/01 09:22:11;;;;;;;13.37;8.50;;;;;;;12.42;100.00;100908.41;5037544;28;20486;-91
2022/12/01 09:24:39;;;;;;;7.70;5.23;;;;;;;12.59;100.00;100925.38;5035277;28;20473;-92
2022/12/01 09:27:07;;;;;;;9.60;5.50;;;;;;;12.74;100.00;100925.22;5051597;28;20449;-91
2022/12/01 09:33:24;;;;;;;10.50;5.47;;;;;;;12.98;100.00;100930.19;5089854;28;20428;-91
2022/12/01 09:39:41;;;;;;;5.83;2.60;;;;;;;13.03;100.00;100919.47;5083755;28;20470;-92
2022/12/01 09:42:43;;;;;;;6.40;3.00;;;;;;;13.21;100.00;100937.28;5057582;28;20556;-91
2022/12/01 10:48:35;;;;;;;4.43;1.73;;;;;;;15.61;100.00;100965.94;5070369;28;20818;-95
2022/12/01 10:55:27;;;;;;;5.60;2.30;;;;;;;15.58;100.00;100974.66;5074060;28;20397;-92
2022/12/01 10:58:33;;;;;;;3.20;1.80;;;;;;;15.70;100.00;100976.47;5042503;28;20472;-92
2022/12/01 11:43:19;;;;;;;3.43;1.53;;;;;;;16.75;100.00;100973.91;5087220;28;20502;-94
2022/12/01 11:50:02;;;;;;;5.03;2.40;;;;;;;16.98;100.00;100970.44;5096932;28;20415;-91
2022/12/01 12:04:08;;;;;;;8.20;3.00;;;;;;;17.00;100.00;100955.34;5030991;28;20444;-93
2022/12/01 12:58:34;;;;;;;9.87;4.83;;;;;;;18.58;100.00;100875.41;5055529;28;20509;-95
2022/12/01 13:34:50;;;;;;;2.07;1.10;;;;;;;19.03;99.10;100807.41;5589766;23;20492;-94
2022/12/01 13:37:36;;;;;;;6.03;1.10;;;;;;;19.18;97.68;100807.69;5026165;28;20446;-94
2022/12/01 13:40:33;;;;;;;2.90;0.93;;;;;;;19.27;97.71;100818.09;5025950;28;20446;-92
2022/12/01 13:43:18;;;;;;;2.87;1.20;;;;;;;19.05;96.64;100796.91;5032726;28;20945;-92
2022/12/01 13:46:29;;;;;;;2.33;0.90;;;;;;;19.06;96.73;100818.81;5037524;28;20510;-92
2022/12/01 13:49:37;;;;;;;7.30;1.83;;;;;;;18.80;96.35;100811.94;5042796;28;20473;-92
2022/12/01 14:30:40;;;;;;;6.30;1.13;;;;;;;18.14;100.00;100790.28;5075191;28;20432;-91
2022/12/01 14:33:43;;;;;;;4.13;0.87;;;;;;;18.08;100.00;100781.06;5043338;28;20473;-87
2022/12/01 14:36:23;;;;;;;2.70;1.10;;;;;;;18.06;100.00;100788.75;5032715;28;20451;-89
2022/12/01 14:39:17;;;;;;;5.43;1.50;;;;;;;18.12;100.00;100782.22;5032671;28;20455;-89
2022/12/01 14:42:02;;;;;;;5.10;0.90;;;;;;;18.21;100.00;100769.72;5014804;28;20486;-90
2022/12/01 14:44:48;;;;;;;5.70;0.90;;;;;;;18.36;100.00;100780.28;5035296;28;20983;-90
2022/12/01 14:47:22;;;;;;;1.60;0.57;;;;;;;18.32;100.00;100765.22;5033025;28;20454;-90
2022/12/01 14:50:05;;;;;;;4.27;0.73;;;;;;;18.32;100.00;100781.84;5025263;28;20450;-89
2022/12/01 14:52:37;;;;;;;2.80;1.20;;;;;;;18.07;99.97;100771.06;5015451;28;20455;-89
2022/12/01 14:55:20;;;;;;;2.80;0.83;;;;;;;18.09;100.00;100787.44;5026297;28;20454;-89
2022/12/01 14:57:59;;;;;;;3.23;1.10;;;;;;;17.98;100.00;100785.50;5032192;28;20455;-89
2022/12/01 15:00:27;;;;;;;3.13;1.63;;;;;;;17.91;100.00;100774.56;5036305;28;20439;-89
2022/12/01 15:03:08;;;;;;;4.23;1.20;;;;;;;17.93;100.00;100775.16;5024913;28;20481;-89
2022/12/01 15:05:39;;;;;;;2.23;0.80;;;;;;;17.92;100.00;100773.47;5031088;28;20530;-89
2022/12/01 15:08:36;;;;;;;4.10;0.80;;;;;;;17.94;100.00;100791.50;5012453;28;20459;-89
2022/12/01 15:11:22;;;;;;;2.40;0.90;;;;;;;17.80;100.00;100789.25;5044559;28;20511;-89
2022/12/01 15:13:54;;;;;;;2.00;0.93;;;;;;;17.69;100.00;100799.22;5021935;28;20461;-89
2022/12/01 15:16:39;;;;;;;4.60;1.23;;;;;;;17.54;100.00;100796.03;5043988;28;20471;-90
2022/12/01 15:19:44;;;;;;;2.90;0.90;;;;;;;17.40;100.00;100789.03;5018901;28;20447;-89
2022/12/01 15:22:14;;;;;;;1.50;0.60;;;;;;;17.40;100.00;100780.75;4962880;28;20473;-89
2022/12/01 15:24:53;;;;;;;1.80;0.73;;;;;;;17.53;100.00;100783.28;4963553;28;20441;-89
2022/12/01 15:27:32;;;;;;;4.70;1.90;;;;;;;17.70;100.00;100778.78;4968772;28;20476;-89
2022/12/01 15:30:14;;;;;;;2.07;0.90;;;;;;;17.93;100.00;100788.97;4982822;28;20443;-89
2022/12/01 15:32:44;;;;;;;7.43;0.90;;;;;;;17.99;100.00;100793.56;4982739;28;20973;-89
2022/12/01 15:35:19;;;;;;;1.50;0.50;;;;;;;18.05;100.00;100787.06;4997816;28;20464;-89
2022/12/01 15:37:48;;;;;;;3.53;0.40;;;;;;;18.00;100.00;100781.41;4977551;28;20467;-87
2022/12/01 15:40:21;;;;;;;4.97;1.13;;;;;;;17.91;100.00;100792.00;4959977;28;20464;-89
2022/12/01 15:43:33;;;;;;;5.60;0.93;;;;;;;17.87;100.00;100784.44;4995095;28;20995;-88
2022/12/01 15:46:14;;;;;;;6.20;4.90;;;;;;;17.89;100.00;100780.34;4993525;28;20453;-88
2022/12/01 15:48:42;;;;;;;2.30;1.50;;;;;;;17.90;100.00;100783.94;4972406;28;20469;-89
2022/12/01 15:51:14;;;;;;;1.30;0.60;;;;;;;17.80;100.00;100773.50;4984601;28;20459;-88
2022/12/01 15:53:57;;;;;;;3.10;0.50;;;;;;;17.81;100.00;100789.00;5001747;28;20443;-88
2022/12/01 15:56:35;;;;;;;1.90;0.67;;;;;;;17.71;100.00;100785.97;5015495;28;20479;-88
2022/12/01 15:59:26;;;;;;;2.37;1.33;;;;;;;17.65;99.97;100786.97;5022457;28;20447;-89
2022/12/01 16:02:25;;;;;;;2.00;0.70;;;;;;;17.52;99.80;100785.22;5051265;28;20494;-89
2022/12/01 16:08:30;;;;;;;1.47;0.60;;;;;;;17.38;100.00;100796.72;5054860;28;20451;-90
2022/12/01 16:11:28;;;;;;;2.40;0.50;;;;;;;17.38;100.00;100799.50;5005258;28;21009;-89
2022/12/01 16:14:26;;;;;;;1.30;0.43;;;;;;;17.29;100.00;100795.41;5035071;28;20447;-90
2022/12/01 16:17:06;;;;;;;1.40;0.43;;;;;;;17.19;100.00;100804.25;5046548;28;20530;-89
2022/12/01 16:20:15;;;;;;;2.13;0.30;;;;;;;17.08;100.00;100797.63;5027778;28;20990;-92
2022/12/01 16:23:08;;;;;;;3.27;0.40;;;;;;;17.00;100.00;100797.09;5045485;28;20482;-92
2022/12/01 16:25:49;;;;;;;1.30;0.40;;;;;;;16.93;100.00;100806.31;5037071;28;20474;-93
2022/12/01 16:28:36;;;;;;;1.30;0.40;;;;;;;16.88;100.00;100795.16;5000317;28;20537;-94
2022/12/01 16:31:05;;;;;;;1.90;0.50;;;;;;;16.79;100.00;100795.69;5022185;28;21007;-93
2022/12/01 16:34:05;;;;;;;1.73;0.40;;;;;;;16.62;100.00;100800.16;5016627;28;20473;-94
2022/12/01 16:36:53;;;;;;;1.93;0.40;;;;;;;16.31;100.00;100790.16;5016682;28;20795;-93
2022/12/01 16:39:39;;;;;;;1.40;0.40;;;;;;;16.18;100.00;100791.13;4994134;28;20456;-94
2022/12/01 16:45:52;;;;;;;5.70;0.60;;;;;;;15.82;100.00;100783.66;5021374;28;20866;-92
2022/12/01 16:48:21;;;;;;;1.37;0.53;;;;;;;15.76;100.00;100792.88;4999591;28;20445;-93
2022/12/01 16:51:25;;;;;;;5.30;0.73;;;;;;;15.75;100.00;100808.56;4987694;28;20471;-93
2022/12/01 16:58:06;;;;;;;1.60;0.50;;;;;;;15.50;100.00;100819.53;5015517;28;20431;-93
2022/12/01 17:00:46;;;;;;;2.30;0.63;;;;;;;15.41;100.00;100825.53;5006968;28;20567;-93
2022/12/01 17:04:03;;;;;;;1.97;0.90;;;;;;;15.35;100.00;100834.72;4995533;28;20476;-93
2022/12/01 17:06:47;;;;;;;2.83;0.60;;;;;;;15.13;100.00;100812.19;5014548;28;20469;-93
2022/12/01 17:09:56;;;;;;;2.40;0.70;;;;;;;15.23;100.00;100830.97;5014285;28;20518;-92
2022/12/01 17:12:28;;;;;;;1.40;0.50;;;;;;;15.07;100.00;100816.69;5012508;28;21294;-96
2022/12/01 17:15:20;;;;;;;2.20;0.60;;;;;;;15.10;100.00;100832.75;4996300;28;20542;-91
2022/12/01 17:18:17;;;;;;;4.10;0.60;;;;;;;15.05;100.00;100839.97;4998118;28;22036;-93
2022/12/01 17:21:02;;;;;;;2.47;1.07;;;;;;;14.94;100.00;100844.28;5025226;28;20467;-93
2022/12/01 17:23:50;;;;;;;4.70;1.50;;;;;;;14.92;100.00;100859.34;4998023;28;20479;-92
2022/12/01 17:30:21;;;;;;;2.43;1.50;;;;;;;14.77;100.00;100862.38;5020245;28;20451;-92
2022/12/01 17:33:23;;;;;;;5.10;1.80;;;;;;;14.70;100.00;100859.63;5020660;28;20593;-94
2022/12/01 17:43:33;;;;;;;6.33;1.53;;;;;;;14.54;100.00;100886.78;5030366;28;20489;-93
2022/12/01 17:50:10;;;;;;;16.10;5.47;;;;;;;14.50;100.00;100892.72;5035965;28;20434;-92
2022/12/01 17:52:37;;;;;;;24.53;12.57;;;;;;;14.38;100.00;100880.66;5030160;28;20466;-93
2022/12/01 18:02:12;;;;;;;5.50;3.10;;;;;;;14.20;100.00;100901.66;5046751;28;20546;-90
2022/12/01 18:04:40;;;;;;;42.23;21.53;;;;;;;14.07;100.00;100886.00;5046648;28;20451;-93
2022/12/01 18:07:08;;;;;;;15.00;8.27;;;;;;;14.12;100.00;100899.97;5016943;28;20463;-91
2022/12/01 18:09:50;;;;;;;6.97;2.23;;;;;;;14.11;100.00;100907.34;5019384;28;20447;-92
2022/12/01 18:12:20;;;;;;;3.10;1.90;;;;;;;14.09;100.00;100905.88;5017096;28;20459;-93
2022/12/01 18:14:48;;;;;;;3.70;2.20;;;;;;;13.97;100.00;100908.44;5012141;28;20466;-91
2022/12/01 18:17:30;;;;;;;3.77;1.53;;;;;;;14.00;100.00;100923.66;5002403;28;20531;-93
2022/12/01 18:27:26;;;;;;;4.47;2.10;;;;;;;13.70;100.00;100904.81;5035027;28;20526;-91
2022/12/01 18:30:21;;;;;;;3.67;1.67;;;;;;;13.82;100.00;100927.88;5002871;28;20455;-91
2022/12/01 18:32:58;;;;;;;4.53;1.90;;;;;;;13.73;100.00;100925.53;5029504;28;20505;-91
2022/12/01 18:35:26;;;;;;;5.80;2.20;;;;;;;13.70;100.00;100932.28;5008090;28;20509;-91
2022/12/01 18:38:42;;;;;;;4.50;2.10;;;;;;;13.59;100.00;100930.19;5020602;28;20440;-91
2022/12/01 18:44:57;;;;;;;9.13;2.80;;;;;;;13.18;100.00;100923.97;5038899;28;20542;-91
2022/12/01 18:47:49;;;;;;;4.87;2.50;;;;;;;13.14;100.00;100926.22;5015306;28;20461;-92
2022/12/01 18:50:17;;;;;;;3.27;1.90;;;;;;;12.98;100.00;100921.97;5027579;28;20448;-93
2022/12/01 18:53:03;;;;;;;4.60;1.97;;;;;;;12.92;100.00;100913.69;5030894;28;20452;-93
2022/12/01 18:58:57;;;;;;;8.50;2.80;;;;;;;12.87;100.00;100921.72;5050589;28;20451;-93
2022/12/01 19:02:09;;;;;;;13.97;4.83;;;;;;;13.02;100.00;100942.47;5019388;28;21013;-92
2022/12/01 19:04:40;;;;;;;4.63;2.80;;;;;;;13.01;100.00;100950.88;5033424;28;20454;-91
2022/12/01 19:07:28;;;;;;;7.40;2.30;;;;;;;12.96;100.00;100950.66;5016811;28;20509;-93
2022/12/01 19:13:43;;;;;;;3.20;1.63;;;;;;;12.68;100.00;100943.34;5034211;28;20426;-92
2022/12/01 19:19:58;;;;;;;5.57;1.90;;;;;;;12.67;100.00;100949.03;5034083;28;21012;-92
2022/12/01 19:23:17;;;;;;;5.20;2.13;;;;;;;12.84;100.00;100971.50;5016688;28;20558;-92
2022/12/01 19:29:25;;;;;;;9.70;3.77;;;;;;;12.83;100.00;100970.66;5020818;28;20422;-91
2022/12/01 19:32:00;;;;;;;12.87;6.07;;;;;;;12.77;100.00;100961.31;5003777;28;20952;-91
2022/12/01 19:34:33;;;;;;;7.93;4.80;;;;;;;12.81;100.00;100978.22;5004069;28;20470;-92
2022/12/01 19:40:54;;;;;;;8.93;4.50;;;;;;;12.70;100.00;100965.91;5017348;28;20447;-92
2022/12/01 19:43:54;;;;;;;21.90;12.23;;;;;;;12.84;100.00;100991.53;5016147;28;20509;-93
2022/12/01 19:47:02;;;;;;;10.13;6.60;;;;;;;12.85;100.00;100990.50;5000479;28;20530;-92
2022/12/01 19:53:10;;;;;;;10.00;5.43;;;;;;;12.78;100.00;100976.72;5017367;28;20424;-94
2022/12/01 19:56:02;;;;;;;11.87;7.30;;;;;;;12.90;100.00;100987.97;5016229;28;20491;-92
2022/12/01 19:58:41;;;;;;;9.23;6.57;;;;;;;12.85;100.00;100990.50;5016425;28;20806;-93
2022/12/01 20:04:49;;;;;;;24.17;11.80;;;;;;;12.87;100.00;100980.16;5017204;28;20466;-91
2022/12/01 20:14:26;;;;;;;11.80;5.90;;;;;;;12.68;100.00;100973.53;5016805;28;20424;-92
2022/12/01 20:16:54;;;;;;;7.70;3.40;;;;;;;12.60;100.00;100970.94;5015855;28;20863;-92
2022/12/01 20:19:22;;;;;;;5.03;2.73;;;;;;;12.58;100.00;100977.66;5015815;28;20535;-92
2022/12/01 20:22:14;;;;;;;3.10;1.50;;;;;;;12.56;100.00;100990.72;5015820;28;20429;-94
2022/12/01 20:25:00;;;;;;;5.00;1.70;;;;;;;12.34;100.00;100977.06;5015947;28;20444;-92
2022/12/01 20:31:21;;;;;;;8.10;2.57;;;;;;;12.30;100.00;100984.03;5016945;28;20508;-93
2022/12/01 20:41:41;;;;;;;7.07;1.80;;;;;;;12.08;100.00;101001.53;5056189;28;20965;-91
2022/12/01 20:44:08;;;;;;;4.13;1.80;;;;;;;11.86;100.00;100969.72;5006223;28;20512;-93
2022/12/01 20:50:23;;;;;;;18.43;3.63;;;;;;;11.88;100.00;100982.19;5055989;28;20472;-91
2022/12/01 20:56:38;;;;;;;6.33;2.70;;;;;;;11.85;100.00;101000.91;5055922;28;20417;-91
2022/12/01 20:59:06;;;;;;;7.60;2.07;;;;;;;11.68;100.00;100992.06;5006283;28;20467;-92
2022/12/01 21:01:50;;;;;;;4.53;1.60;;;;;;;11.69;100.00;101007.44;5005649;28;20841;-91
2022/12/01 21:04:25;;;;;;;9.00;2.03;;;;;;;11.57;100.00;101007.09;5037854;28;20482;-90
2022/12/01 21:07:01;;;;;;;4.20;1.90;;;;;;;11.51;100.00;100996.09;5006235;28;20538;-92
2022/12/01 21:09:43;;;;;;;5.80;2.90;;;;;;;11.53;100.00;101005.81;5005922;28;20473;-93
2022/12/01 21:15:53;;;;;;;8.00;4.73;;;;;;;11.50;100.00;100994.41;5055580;28;20441;-92
2022/12/01 21:22:12;;;;;;;24.33;3.30;;;;;;;11.45;100.00;100996.88;5056870;28;20437;-93
2022/12/01 21:24:41;;;;;;;6.20;1.87;;;;;;;11.24;100.00;100975.78;5024866;28;20482;-93
2022/12/01 21:27:30;;;;;;;5.70;2.13;;;;;;;11.35;100.00;101002.66;5021938;28;20971;-92
2022/12/01 21:30:52;;;;;;;3.87;1.50;;;;;;;11.30;100.00;101000.50;5039885;28;20537;-93
2022/12/01 21:33:54;;;;;;;3.07;1.10;;;;;;;11.26;100.00;101007.38;5057945;28;20449;-92
2022/12/01 21:36:40;;;;;;;5.43;1.13;;;;;;;11.26;100.00;101004.66;5058572;28;20492;-93
2022/12/01 21:39:16;;;;;;;3.50;1.23;;;;;;;11.11;100.00;100989.31;5041486;28;20510;-95
2022/12/01 21:42:08;;;;;;;7.03;1.30;;;;;;;11.12;100.00;100991.84;5004688;28;20933;-93
2022/12/01 21:45:27;;;;;;;2.53;1.30;;;;;;;11.23;100.00;101015.97;5018267;28;20487;-93
2022/12/01 21:48:19;;;;;;;22.83;8.20;;;;;;;11.24;100.00;101023.13;5025380;28;20443;-94
2022/12/01 21:51:11;;;;;;;9.17;3.43;;;;;;;11.23;100.00;101021.44;5017573;28;20447;-93
2022/12/01 21:53:44;;;;;;;4.63;1.30;;;;;;;11.23;100.00;101020.59;5033968;28;20538;-93
2022/12/01 21:56:46;;;;;;;2.60;1.27;;;;;;;11.22;100.00;101032.56;5032205;28;20447;-93
2022/12/01 22:03:26;;;;;;;3.47;1.50;;;;;;;11.24;100.00;101025.03;5046164;28;20561;-93
2022/12/01 22:06:14;;;;;;;3.30;1.50;;;;;;;11.18;100.00;101012.09;5033714;28;20538;-92
2022/12/01 22:12:27;;;;;;;3.17;1.30;;;;;;;11.45;100.00;101019.59;5034753;28;20851;-93
2022/12/01 22:15:03;;;;;;;4.00;1.47;;;;;;;11.42;100.00;101003.56;5034085;28;20806;-92
2022/12/01 22:21:36;;;;;;;10.53;4.50;;;;;;;11.66;100.00;101032.47;5034492;28;20469;-92
2022/12/01 22:28:12;;;;;;;10.90;3.70;;;;;;;11.59;100.00;101032.41;5036078;28;20431;-91
2022/12/01 22:30:48;;;;;;;5.00;3.20;;;;;;;11.56;100.00;101035.50;5040533;28;20443;-94
2022/12/01 22:37:23;;;;;;;9.13;5.00;;;;;;;11.54;100.00;101020.34;5062836;28;20499;-93
2022/12/01 22:43:55;;;;;;;6.87;3.30;;;;;;;11.58;100.00;101025.22;5054547;28;20513;-93
2022/12/01 22:46:49;;;;;;;14.13;5.30;;;;;;;11.66;100.00;101030.59;5020124;28;20530;-93
2022/12/01 22:57:10;;;;;;;14.40;5.30;;;;;;;11.81;100.00;101037.94;5054047;28;20453;-93
2022/12/01 23:00:15;;;;;;;14.00;6.13;;;;;;;11.85;100.00;101036.50;5037052;28;20465;-93
2022/12/01 23:02:53;;;;;;;17.47;5.87;;;;;;;11.88;100.00;101033.38;5035819;28;20454;-93
2022/12/01 23:05:35;;;;;;;15.63;5.17;;;;;;;11.86;100.00;101021.75;5040199;28;20446;-93
2022/12/01 23:08:41;;;;;;;9.30;3.63;;;;;;;11.94;100.00;101033.41;5008026;28;20446;-93
2022/12/01 23:11:22;;;;;;;8.80;3.70;;;;;;;11.93;100.00;101022.69;5058024;28;20441;-93
2022/12/01 23:13:50;;;;;;;7.17;3.00;;;;;;;11.94;100.00;101016.13;5016189;28;20457;-93
2022/12/01 23:16:41;;;;;;;5.63;2.83;;;;;;;12.04;100.00;101022.16;5007412;28;20510;-94
2022/12/01 23:19:27;;;;;;;8.37;3.90;;;;;;;12.07;100.00;101024.50;5039149;28;20537;-94
2022/12/01 23:26:13;;;;;;;6.80;2.97;;;;;;;12.14;100.00;101032.75;5057520;28;20433;-95
2022/12/01 23:32:27;;;;;;;9.67;3.40;;;;;;;12.06;100.00;101003.63;5077071;28;20412;-94
2022/12/01 23:34:55;;;;;;;7.83;3.33;;;;;;;12.13;100.00;101012.72;5039762;28;20537;-94
2022/12/01 23:38:01;;;;;;;6.27;3.20;;;;;;;12.25;100.00;101027.63;5038822;28;20988;-95
2022/12/01 23:40:38;;;;;;;5.37;2.67;;;;;;;12.21;100.00;101011.75;5043164;28;20441;-95
2022/12/01 23:43:28;;;;;;;7.63;3.30;;;;;;;12.31;100.00;101021.34;5026834;28;20441;-94
2022/12/01 23:46:13;;;;;;;9.63;2.97;;;;;;;12.19;100.00;101006.47;5038960;28;20466;-94
2022/12/01 23:52:34;;;;;;;6.30;3.77;;;;;;;12.30;100.00;101014.16;5076627;28;20472;-95
2022/12/01 23:59:15;;;;;;;4.27;2.00;;;;;;;12.38;100.00;101016.75;5063959;28;20492;-93
